Date,TemperatureHighF,TemperatureAvgF,TemperatureLowF,DewpointHighF,DewpointAvgF,DewpointLowF,HumidityHigh,HumidityAvg,HumidityLow,PressureMaxIn,PressureMinIn,WindSpeedMaxMPH,WindSpeedAvgMPH,GustSpeedMaxMPH,PrecipitationSumIn
2013-1-1,29.0,15.9,12.0,11.0,8.9,6.0,83,74,45,0.00,40.00,6,4,16,0.01
2013-1-2,25.0,13.8,7.0,10.0,6.1,3.0,85,72,51,0.00,40.00,6,3,9,0.01
2013-1-3,31.0,23.5,14.0,14.0,8.8,5.0,71,54,43,0.00,40.00,6,3,10,0.00
2013-1-4,35.0,30.6,25.0,23.0,18.0,3.0,74,60,33,0.00,40.00,16,7,24,0.00
2013-1-5,36.0,30.3,26.0,22.0,18.5,14.0,76,61,50,0.00,40.00,11,5,17,0.00
2013-1-6,32.0,29.5,27.0,22.0,18.1,14.0,78,63,51,0.00,40.00,12,6,21,0.00
2013-1-7,35.0,29.2,25.0,28.0,21.0,14.0,91,72,54,0.00,40.00,16,6,39,0.00
2013-1-8,36.0,32.1,29.0,30.0,22.7,15.0,89,69,52,0.00,40.00,19,8,46,0.00
2013-1-9,41.0,36.3,33.0,31.0,26.3,23.0,94,68,52,0.00,40.00,10,6,19,0.06
2013-1-10,33.0,21.2,15.0,31.0,18.7,12.0,94,90,86,0.00,40.00,19,13,26,0.05
2013-1-11,15.0,9.0,6.0,12.0,4.5,1.0,87,82,80,0.00,40.00,9,4,16,0.00
2013-1-12,11.0,5.4,1.0,5.0,0.1,-4.0,81,78,76,0.00,40.00,6,3,13,0.00
2013-1-13,10.0,5.4,3.0,3.0,-0.9,-3.0,78,75,71,0.00,40.00,7,4,15,0.00
2013-1-14,16.0,9.8,4.0,11.0,3.7,-2.0,81,76,73,0.00,40.00,12,6,21,0.00
2013-1-16,40.0,36.0,31.0,15.0,12.7,11.0,49,38,30,0.00,40.00,17,12,29,0.02
2013-1-17,47.0,39.2,30.0,19.0,13.1,9.0,50,34,28,0.00,40.00,12,6,23,0.02
2013-1-18,49.0,40.3,37.0,12.0,7.5,0.0,32,26,17,0.00,40.00,16,7,36,0.02
2013-1-19,47.0,40.6,33.0,9.0,6.4,1.0,29,24,20,0.00,40.00,12,6,22,0.00
2013-1-20,44.0,39.4,34.0,12.0,8.1,5.0,31,27,22,0.00,40.00,14,10,24,0.00
2013-1-21,51.0,41.2,35.0,16.0,9.7,0.0,38,28,15,0.00,40.00,8,5,15,0.00
2013-1-22,47.0,41.5,34.0,6.0,0.4,-6.0,23,18,13,0.00,40.00,10,6,15,0.00
2013-1-23,44.0,39.4,34.0,28.0,12.6,5.0,71,34,24,0.00,40.00,11,6,21,0.00
2013-1-24,39.0,34.5,32.0,32.0,26.2,21.0,93,72,54,0.00,40.00,16,6,26,0.08
2013-1-25,39.0,35.1,32.0,32.0,28.1,21.0,96,76,59,0.00,40.00,12,6,19,0.02
2013-1-26,39.0,32.3,26.0,32.0,27.6,21.0,96,83,61,0.00,40.00,23,8,33,0.04
2013-1-27,29.0,24.1,20.0,24.0,14.6,9.0,92,67,49,0.00,40.00,14,8,22,0.01
2013-1-28,27.0,21.6,19.0,19.0,14.0,9.0,90,73,49,0.00,40.00,9,5,17,0.01
2013-1-29,23.0,21.1,19.0,19.0,17.1,13.0,90,85,65,0.00,40.00,14,5,32,0.01
2013-1-30,33.0,29.0,21.0,27.0,23.7,18.0,89,81,72,0.00,40.00,19,9,31,0.10
2013-1-31,36.0,33.2,31.0,28.0,26.7,25.0,84,76,68,0.00,40.00,11,7,21,0.13
2013-2-1,35.0,31.5,29.0,28.0,23.3,19.0,92,72,59,0.00,40.00,22,11,34,0.06
2013-2-2,45.0,33.7,27.0,23.0,18.4,12.0,70,54,41,0.00,40.00,9,4,17,0.04
2013-2-3,42.0,35.5,31.0,22.0,17.0,10.0,57,47,36,0.00,40.00,16,7,27,0.01
2013-2-4,34.0,33.1,32.0,28.0,21.9,15.0,85,64,46,0.00,40.00,10,5,22,0.00
2013-2-5,46.0,35.2,29.0,28.0,25.1,16.0,88,68,37,0.00,40.00,16,6,30,0.00
2013-2-6,35.0,29.0,25.0,26.0,20.3,16.0,92,70,57,0.00,40.00,15,6,28,0.06
2013-2-7,36.0,28.6,25.0,20.0,15.4,13.0,71,58,40,0.00,40.00,14,5,22,0.01
2013-2-8,33.0,27.0,23.0,25.0,19.7,17.0,86,74,64,0.00,40.00,10,4,16,0.00
2013-2-9,27.0,23.6,21.0,20.0,15.6,10.0,91,72,49,0.00,40.00,18,9,28,0.00
2013-2-10,32.0,23.3,20.0,21.0,16.2,10.0,90,75,57,0.00,40.00,12,6,17,0.03
2013-2-11,29.0,24.0,20.0,18.0,14.3,10.0,74,66,53,0.00,40.00,15,8,24,0.02
2013-2-12,32.0,28.5,25.0,23.0,20.3,16.0,86,71,57,0.00,40.00,14,6,26,0.00
2013-2-13,36.0,31.1,27.0,27.0,23.8,17.0,90,75,58,0.00,40.00,23,10,33,0.02
2013-2-14,31.0,29.0,27.0,21.0,17.2,15.0,74,61,51,0.00,40.00,15,11,27,0.01
2013-2-15,41.0,33.9,28.0,25.0,22.3,20.0,75,63,51,0.00,40.00,12,7,22,0.00
2013-2-16,50.0,38.3,26.0,27.0,22.3,19.0,93,54,37,0.00,40.00,26,7,48,0.00
2013-2-17,28.0,24.5,22.0,24.0,19.9,14.0,93,82,64,0.00,40.00,13,8,35,0.06
2013-2-18,37.0,26.4,19.0,16.0,12.2,8.0,78,56,36,0.00,40.00,9,4,15,0.01
2013-2-19,37.0,28.0,24.0,25.0,15.2,9.0,93,61,38,0.00,40.00,10,5,17,0.01
2013-2-20,28.0,24.0,20.0,23.0,17.4,8.0,92,77,56,0.00,40.00,15,9,21,0.11
2013-2-21,26.0,21.5,16.0,18.0,10.4,5.0,86,63,49,0.00,40.00,14,7,21,0.03
2013-2-22,33.0,26.4,21.0,26.0,18.7,14.0,94,74,51,0.00,40.00,8,5,19,0.03
2013-2-23,27.0,22.0,19.0,26.0,16.6,9.0,94,80,61,0.00,40.00,15,11,43,0.01
2013-2-24,29.0,24.2,20.0,15.0,12.6,9.0,70,61,49,0.00,40.00,16,9,28,0.01
2013-2-25,31.0,24.9,20.0,24.0,15.9,10.0,90,69,46,0.00,40.00,12,6,22,0.04
2013-2-26,27.0,22.2,19.0,19.0,15.1,11.0,90,74,57,0.00,40.00,11,6,23,0.03
2013-2-27,40.0,28.1,19.0,18.0,11.3,4.0,69,51,33,0.00,40.00,9,6,30,0.14
2013-2-28,37.0,30.6,25.0,30.0,22.7,10.0,94,74,45,0.00,40.00,10,5,17,0.03
2013-3-1,45.0,39.3,35.0,35.0,31.7,29.0,85,74,61,0.00,40.00,11,6,20,0.03
2013-3-2,54.0,43.9,38.0,34.0,27.4,22.0,82,55,31,0.00,40.00,12,7,20,0.01
2013-3-3,39.0,27.4,20.0,34.0,19.4,8.0,93,73,43,0.00,40.00,25,12,44,0.15
2013-3-4,31.0,22.6,16.0,17.0,12.0,7.0,91,65,40,0.00,40.00,10,4,16,0.01
2013-3-5,41.0,29.0,19.0,13.0,9.5,6.0,61,45,30,0.00,40.00,12,5,15,0.01
2013-3-6,41.0,32.6,29.0,31.0,21.4,12.0,94,65,44,0.00,40.00,9,5,19,0.02
2013-3-7,42.0,31.9,24.0,30.0,18.1,8.0,93,61,28,0.00,40.00,11,5,42,0.10
2013-3-8,42.0,31.0,22.0,20.0,15.9,13.0,72,54,38,0.00,40.00,7,4,13,0.06
2013-3-9,38.0,30.5,25.0,17.0,15.3,12.0,64,53,40,0.00,40.00,20,12,32,0.00
2013-3-10,45.0,35.3,27.0,25.0,16.1,9.0,74,49,23,0.00,40.00,16,8,24,0.00
2013-3-11,39.0,33.5,30.0,28.0,18.4,10.0,90,57,35,0.00,40.00,23,10,34,0.00
2013-3-12,48.0,36.9,29.0,32.0,24.6,7.0,81,62,36,0.00,40.00,12,6,29,0.00
2013-3-13,52.0,46.0,40.0,29.0,26.2,24.0,64,47,35,0.00,40.00,15,6,24,0.00
2013-3-14,60.0,53.0,45.0,28.0,22.0,17.0,42,30,24,0.00,40.00,7,5,18,0.00
2013-3-15,48.0,42.9,38.0,31.0,25.4,22.0,66,50,37,0.00,40.00,19,12,36,0.00
2013-3-16,41.0,37.3,31.0,29.0,25.3,21.0,94,62,50,0.00,40.00,18,10,29,0.00
2013-3-17,31.0,23.3,19.0,29.0,18.4,10.0,95,82,59,0.00,40.00,25,10,50,0.10
2013-3-18,30.0,22.7,19.0,21.0,16.5,12.0,89,78,50,0.00,40.00,22,6,37,0.03
2013-3-19,45.0,32.1,21.0,20.0,12.9,6.0,88,48,21,0.00,40.00,22,6,37,0.04
2013-3-20,52.0,36.1,26.0,39.0,25.9,9.0,94,70,34,0.00,40.00,16,8,39,0.05
2013-3-21,26.0,22.1,18.0,25.0,18.6,14.0,94,86,79,0.00,40.00,25,8,39,0.11
2013-3-22,28.0,19.8,17.0,20.0,14.5,11.0,90,80,61,0.00,40.00,17,6,32,0.03
2013-3-23,30.0,20.2,15.0,15.0,9.2,3.0,90,64,36,0.00,40.00,15,8,25,0.03
2013-3-24,35.0,23.7,14.0,15.0,8.1,2.0,90,55,28,0.00,40.00,7,4,12,0.00
2013-3-25,43.0,30.6,20.0,18.0,10.0,3.0,55,43,27,0.00,40.00,14,5,21,0.00
2013-3-26,47.0,37.7,30.0,27.0,19.5,15.0,67,49,31,0.00,40.00,15,6,22,0.00
2013-3-27,53.0,43.3,33.0,28.0,22.8,19.0,57,45,32,0.00,40.00,10,4,20,0.00
2013-3-28,49.0,44.5,37.0,33.0,30.8,28.0,78,59,47,0.00,40.00,12,7,26,0.02
2013-3-29,46.0,40.4,36.0,34.0,31.3,29.0,85,70,52,0.00,40.00,16,9,22,0.04
2013-3-30,52.0,43.7,36.0,30.0,23.0,-99.9,73,49,26,0.00,40.00,11,8,19,0.02
2013-3-31,58.0,50.6,40.0,27.0,23.3,20.0,48,35,23,0.00,40.00,7,4,13,0.00
2013-4-1,58.0,50.8,37.0,31.0,28.0,24.0,61,42,32,0.00,40.00,8,5,13,0.00
2013-4-2,55.0,49.9,43.0,34.0,31.5,28.0,65,49,40,0.00,40.00,17,11,27,0.00
2013-4-3,56.0,47.9,42.0,33.0,30.8,28.0,64,52,35,0.00,40.00,11,6,20,0.00
2013-4-4,56.0,48.4,43.0,38.0,33.7,30.0,81,57,37,0.00,40.00,9,5,20,0.04
2013-4-5,45.0,39.3,36.0,38.0,32.4,29.0,88,77,57,0.00,40.00,15,7,28,0.15
2013-4-6,43.0,36.6,33.0,37.0,32.2,28.0,92,84,75,0.00,40.00,14,6,27,0.30
2013-4-7,38.0,33.1,30.0,35.0,29.7,21.0,95,87,69,0.00,40.00,24,6,46,0.28
2013-4-8,33.0,27.8,22.0,25.0,18.5,9.0,94,69,49,0.00,40.00,14,8,27,0.01
2013-4-9,42.0,27.6,15.0,19.0,11.2,5.0,67,51,33,0.00,40.00,9,6,19,0.01
2013-4-10,44.0,37.9,33.0,39.0,28.4,18.0,85,68,54,0.00,40.00,17,8,36,0.09
2013-4-11,39.0,34.7,30.0,31.0,25.2,20.0,93,69,49,0.00,40.00,24,14,34,0.08
2013-4-12,51.0,37.7,28.0,26.0,17.4,9.0,68,47,21,0.00,40.00,15,6,24,0.00
2013-4-13,36.0,29.2,23.0,30.0,22.6,17.0,94,77,56,0.00,40.00,20,10,44,0.03
2013-4-14,40.0,27.7,22.0,24.0,20.3,15.0,91,75,44,0.00,40.00,9,4,15,0.40
2013-4-15,33.0,23.6,16.0,22.0,11.9,8.0,91,62,43,0.00,40.00,14,8,22,0.01
2013-4-16,31.0,22.3,14.0,10.0,6.9,4.0,65,52,38,0.00,40.00,17,8,25,0.01
2013-4-17,39.0,26.3,15.0,10.0,5.5,2.0,64,43,22,0.00,40.00,11,7,22,0.00
2013-4-18,39.0,31.7,25.0,22.0,14.1,7.0,60,48,38,0.00,40.00,20,12,29,0.00
2013-4-19,41.0,36.5,33.0,35.0,29.2,19.0,86,75,57,0.00,40.00,15,8,22,0.03
2013-4-20,44.0,37.3,34.0,34.0,29.3,21.0,88,74,52,0.00,40.00,19,9,27,0.02
2013-4-21,45.0,35.7,22.0,29.0,25.0,19.0,93,67,43,0.00,40.00,16,9,30,0.02
2013-4-22,32.0,23.8,15.0,21.0,15.8,11.0,90,73,47,0.00,40.00,8,6,20,0.19
2013-4-23,40.0,30.9,21.0,16.0,14.0,11.0,73,51,33,0.00,40.00,16,8,24,0.05
2013-4-24,53.0,41.6,29.0,20.0,17.1,14.0,55,38,24,0.00,40.00,15,8,24,0.00
2013-4-25,56.0,50.2,40.0,23.0,20.5,16.0,40,31,25,0.00,40.00,21,11,33,0.00
2013-4-26,61.0,53.6,42.0,30.0,25.9,19.0,47,34,26,0.00,40.00,17,10,28,0.00
2013-4-27,61.0,55.0,45.0,31.0,24.8,21.0,55,32,21,0.00,40.00,15,9,29,0.00
2013-4-28,53.0,45.1,41.0,34.0,28.3,21.0,71,53,34,0.00,40.00,21,11,37,0.00
2013-4-29,44.0,37.4,32.0,34.0,27.0,17.0,92,70,36,0.00,40.00,23,10,42,0.33
2013-4-30,34.0,30.2,24.0,27.0,15.5,8.0,85,56,35,0.00,40.00,20,12,32,0.01
2013-5-1,44.0,33.4,23.0,21.0,14.2,10.0,92,48,29,0.00,40.00,16,9,25,0.01
2013-5-2,60.0,46.9,31.0,21.0,15.0,9.0,48,30,14,0.00,40.00,11,6,22,0.00
2013-5-3,50.0,43.3,38.0,37.0,27.9,12.0,95,59,22,0.00,40.00,17,7,24,0.05
2013-5-4,50.0,42.5,37.0,37.0,33.2,30.0,95,71,50,0.00,40.00,12,7,21,0.07
2013-5-6,69.0,60.8,46.0,35.0,28.2,24.0,48,30,20,0.00,40.00,9,5,14,0.00
2013-5-7,71.0,62.3,50.0,35.0,28.2,22.0,44,28,19,0.00,40.00,17,8,25,0.00
2013-5-8,72.0,59.8,49.0,38.0,32.3,28.0,49,36,22,0.00,40.00,12,6,26,0.00
2013-5-9,68.0,60.2,52.0,49.0,36.2,28.0,50,41,31,0.00,40.00,10,5,22,0.03
2013-5-10,73.0,63.7,55.0,41.0,31.3,-99.9,52,33,21,0.00,40.00,9,6,20,0.02
2013-5-11,75.0,65.9,53.0,42.0,32.5,-99.9,44,31,24,0.00,40.00,11,6,20,0.00
2013-5-12,78.0,70.8,59.0,46.0,38.2,33.0,47,32,20,0.00,40.00,16,8,24,0.00
2013-5-13,77.0,61.1,48.0,48.0,41.7,34.0,80,52,21,0.00,40.00,32,10,47,0.03
2013-5-14,63.0,51.1,44.0,35.0,30.7,27.0,61,47,28,0.00,40.00,18,12,33,0.03
2013-5-15,61.0,48.9,40.0,42.0,33.0,26.0,86,56,39,0.00,40.00,12,6,20,0.05
2013-5-16,55.0,42.4,42.0,43.0,16.9,-99.9,92,72,59,0.00,40.00,12,6,20,0.12
2013-5-17,47.0,42.5,40.0,42.0,31.7,-99.9,94,82,57,0.00,40.00,7,3,11,0.41
2013-5-18,52.0,44.8,40.0,40.0,37.0,32.0,94,75,55,0.00,40.00,19,10,29,0.01
2013-5-19,49.0,44.3,40.0,35.0,33.4,31.0,79,66,53,0.00,40.00,16,11,24,0.00
2013-5-20,63.0,51.6,42.0,39.0,35.0,31.0,75,55,33,0.00,40.00,11,6,20,0.00
2013-5-21,67.0,57.3,46.0,42.0,35.3,28.0,79,47,26,0.00,40.00,14,8,26,0.03
2013-5-22,50.0,43.4,33.0,42.0,35.7,27.0,88,74,60,0.00,40.00,18,11,31,0.07
2013-5-23,53.0,40.1,32.0,32.0,28.6,24.0,94,66,41,0.00,40.00,13,6,27,0.02
2013-5-24,51.0,42.2,37.0,34.0,29.8,27.0,79,63,41,0.00,40.00,21,10,29,0.01
2013-5-25,53.0,43.7,35.0,36.0,32.1,28.0,83,65,50,0.00,40.00,21,7,28,0.00
2013-5-26,57.0,46.9,40.0,46.0,35.9,29.0,88,67,45,0.00,40.00,22,5,32,0.19
2013-5-27,56.0,47.3,42.0,41.0,37.5,35.0,88,70,50,0.00,40.00,11,6,27,0.09
2013-5-28,54.0,46.3,41.0,45.0,39.6,36.0,94,78,59,0.00,40.00,18,7,29,0.10
2013-5-29,59.0,47.6,40.0,40.0,33.7,28.0,74,61,31,0.00,40.00,22,7,34,0.01
2013-5-30,50.0,42.7,37.0,36.0,31.2,25.0,85,65,44,0.00,40.00,22,12,37,0.00
2013-5-31,54.0,45.0,39.0,33.0,28.0,23.0,76,53,34,0.00,40.00,18,12,24,0.00
2013-6-1,66.0,54.4,40.0,32.0,28.2,22.0,55,38,27,0.00,40.00,9,5,15,0.00
2013-6-2,55.0,46.3,41.0,43.0,34.8,26.0,88,67,34,0.00,40.00,19,6,35,0.34
2013-6-3,58.0,46.0,38.0,40.0,36.5,31.0,94,72,39,0.00,40.00,17,8,36,0.08
2013-6-4,61.0,49.0,41.0,41.0,39.2,36.0,95,71,47,0.00,40.00,10,4,14,0.01
2013-6-5,72.0,59.8,46.0,42.0,34.0,24.0,65,42,21,0.00,40.00,16,6,25,0.00
2013-6-6,76.0,65.3,55.0,45.0,38.4,28.0,56,38,28,0.00,40.00,15,7,24,0.00
2013-6-7,73.0,64.9,59.0,48.0,41.2,36.0,51,42,34,0.00,40.00,19,9,38,0.00
2013-6-8,72.0,61.7,52.0,41.0,33.8,26.0,53,37,20,0.00,40.00,19,13,33,0.00
2013-6-9,75.0,64.8,55.0,39.0,34.7,29.0,47,34,20,0.00,40.00,21,10,33,0.00
2013-6-10,73.0,63.8,54.0,38.0,33.8,24.0,48,34,22,0.00,40.00,13,7,21,0.00
2013-6-11,73.0,62.1,55.0,43.0,34.5,27.0,50,36,27,0.00,40.00,17,6,32,0.00
2013-6-12,66.0,56.6,50.0,46.0,40.5,36.0,62,55,45,0.00,40.00,11,8,19,0.00
2013-6-13,53.0,45.0,40.0,45.0,39.8,34.0,95,82,57,0.00,40.00,15,7,36,0.43
2013-6-14,53.0,45.6,39.0,38.0,34.2,31.0,91,66,48,0.00,40.00,21,7,29,0.02
2013-6-15,72.0,61.2,43.0,36.0,28.9,21.0,60,33,15,0.00,40.00,12,6,21,0.01
2013-6-16,75.0,68.6,56.0,40.0,34.9,27.0,39,29,23,0.00,40.00,10,5,16,0.00
2013-6-17,75.0,70.1,61.0,43.0,37.7,32.0,41,31,24,0.00,40.00,7,4,12,0.02
2013-6-18,76.0,66.3,58.0,49.0,43.4,33.0,66,45,28,0.00,40.00,15,7,27,0.04
2013-6-19,58.0,47.0,41.0,47.0,42.0,37.0,96,83,66,0.00,40.00,20,9,30,0.62
2013-6-20,47.0,41.1,38.0,38.0,35.4,33.0,86,80,66,0.00,40.00,12,6,21,0.34
2013-6-22,58.0,53.3,45.0,43.0,36.9,31.0,80,54,43,0.00,40.00,16,9,25,0.00
2013-6-23,68.0,59.4,46.0,42.0,36.4,31.0,64,44,30,0.00,40.00,15,5,21,0.00
2013-6-24,65.0,57.4,51.0,50.0,43.9,37.0,92,61,45,0.00,40.00,19,6,28,0.04
2013-6-25,64.0,55.1,49.0,47.0,43.4,37.0,77,65,43,0.00,40.00,11,5,25,0.05
2013-6-26,63.0,55.0,48.0,51.0,47.0,42.0,94,75,59,0.00,40.00,11,4,24,0.08
2013-6-27,81.0,64.6,50.0,54.0,48.6,45.0,93,61,28,0.00,40.00,13,6,23,0.05
2013-6-28,83.0,74.7,62.0,51.0,48.0,41.0,57,40,30,0.00,40.00,7,5,13,0.00
2013-6-29,82.0,72.3,66.0,57.0,52.0,46.0,66,50,37,0.00,40.00,13,5,19,0.06
2013-6-30,86.0,75.2,65.0,60.0,51.7,37.0,64,47,19,0.00,40.00,17,6,24,0.06
2013-7-3,83.0,78.0,72.0,55.0,46.8,37.0,47,34,20,0.00,40.00,19,11,31,0.00
2013-7-4,80.0,73.6,64.0,54.0,45.3,39.0,58,38,26,0.00,40.00,17,10,25,0.00
2013-7-5,75.0,68.5,60.0,45.0,41.3,38.0,46,37,29,0.00,40.00,22,11,30,0.00
2013-7-6,78.0,65.4,54.0,44.0,31.9,-99.9,54,38,26,0.00,40.00,11,6,20,0.00
2013-7-7,82.0,73.0,58.0,45.0,39.6,32.0,42,30,24,0.00,40.00,10,7,17,0.00
2013-7-8,77.0,67.3,61.0,50.0,41.5,35.0,51,40,30,0.00,40.00,22,8,36,0.00
2013-7-9,81.0,71.6,59.0,46.0,39.1,26.0,50,33,17,0.00,40.00,19,8,27,0.00
2013-7-10,88.0,77.2,65.0,42.0,31.5,-99.9,30,20,14,0.00,40.00,14,6,22,0.00
2013-7-11,76.0,68.1,59.0,47.0,41.6,38.0,64,39,29,0.00,40.00,16,10,28,0.10
2013-7-12,75.0,67.2,58.0,51.0,41.8,36.0,47,40,31,0.00,40.00,19,7,35,0.06
2013-7-13,74.0,64.8,55.0,42.0,35.0,27.0,51,34,23,0.00,40.00,13,8,19,0.02
2013-7-14,80.0,70.3,57.0,39.0,34.5,25.0,50,28,20,0.00,40.00,15,8,24,0.00
2013-7-15,85.0,75.3,62.0,43.0,36.4,32.0,39,26,15,0.00,40.00,21,9,32,0.00
2013-7-16,80.0,70.6,61.0,55.0,49.0,45.0,77,49,32,0.00,40.00,14,7,24,0.02
2013-7-25,88.0,82.8,75.0,42.0,34.5,29.0,26,18,13,0.00,40.00,21,12,32,0.00
2013-7-26,87.0,80.2,68.0,38.0,31.6,24.0,26,18,11,0.00,40.00,26,9,37,0.00
2013-7-27,81.0,75.9,67.0,33.0,24.9,17.0,25,16,10,0.00,40.00,22,14,35,0.00
2013-7-28,79.0,66.8,59.0,36.0,26.3,-99.9,34,24,17,0.00,40.00,17,10,26,0.00
2013-7-29,79.0,68.1,58.0,37.0,28.9,24.0,32,24,13,0.00,40.00,14,8,24,0.00
2013-7-30,77.0,70.0,62.0,39.0,31.0,25.0,29,24,18,0.00,40.00,19,7,30,0.00
2013-7-31,82.0,71.7,60.0,40.0,34.6,31.0,34,26,18,0.00,40.00,8,4,21,0.00
2013-8-1,69.0,58.8,51.0,52.0,43.5,35.0,85,61,29,0.00,40.00,13,6,39,0.21
2013-8-2,64.0,55.1,49.0,47.0,43.0,39.0,89,65,42,0.00,40.00,24,10,38,0.05
2013-8-3,72.0,59.4,47.0,49.0,44.3,41.0,86,60,36,0.00,40.00,11,5,19,0.01
2013-8-4,78.0,67.2,54.0,47.0,39.9,34.0,61,40,22,0.00,40.00,18,8,26,0.00
2013-8-5,78.0,70.0,61.0,47.0,36.8,32.0,41,30,22,0.00,40.00,22,10,39,0.00
2013-8-6,80.0,69.7,59.0,44.0,38.8,34.0,49,34,22,0.00,40.00,16,8,22,0.00
2013-8-7,82.0,72.2,61.0,43.0,32.5,16.0,41,26,9,0.00,40.00,18,7,25,0.00
2013-8-8,83.0,72.2,61.0,39.0,33.2,28.0,31,24,16,0.00,40.00,9,6,17,0.00
2013-8-9,79.0,65.9,58.0,51.0,45.5,32.0,61,49,25,0.00,40.00,13,5,37,0.17
2013-8-10,79.0,67.2,56.0,50.0,43.3,38.0,65,43,28,0.00,40.00,11,6,30,0.11
2013-8-11,79.0,68.7,62.0,49.0,40.4,31.0,49,36,22,0.00,40.00,13,5,31,0.00
2013-8-12,81.0,67.9,59.0,46.0,39.4,31.0,50,37,22,0.00,40.00,19,6,34,0.00
2013-8-13,81.0,67.6,59.0,48.0,37.2,-99.9,55,35,20,0.00,40.00,14,7,27,0.00
2013-8-14,83.0,74.4,61.0,41.0,35.9,32.0,37,25,19,0.00,40.00,11,6,20,0.00
2013-8-15,92.0,71.8,65.0,39.0,14.3,-99.9,31,15,7,0.00,40.00,13,6,24,0.00
2013-8-16,88.0,75.5,71.0,42.0,30.4,-99.9,34,22,15,0.00,40.00,13,9,25,0.00
2013-8-17,82.0,73.8,66.0,48.0,40.6,-99.9,47,32,21,0.00,40.00,17,10,26,0.00
2013-8-18,81.0,73.9,61.0,49.0,43.4,39.0,54,34,24,0.00,40.00,21,12,35,0.00
2013-8-19,83.0,69.7,63.0,42.0,23.2,-99.9,40,23,15,0.00,40.00,21,14,37,0.00
2013-8-20,80.0,70.7,60.0,43.0,35.2,-99.9,44,29,21,0.00,40.00,22,13,33,0.00
2013-8-21,80.0,71.5,61.0,36.0,33.0,29.0,35,25,17,0.00,40.00,13,6,20,0.00
2013-8-22,83.0,73.1,63.0,40.0,34.5,29.0,33,25,18,0.00,40.00,13,5,20,0.00
2013-8-23,79.0,69.2,59.0,51.0,38.3,-99.9,71,42,26,0.00,40.00,16,8,26,0.00
2013-8-24,80.0,67.3,58.0,49.0,40.2,-99.9,63,41,22,0.00,40.00,22,8,44,0.00
2013-8-25,86.0,65.8,58.0,52.0,42.9,34.0,66,46,18,0.00,40.00,15,7,28,0.04
2013-8-26,78.0,66.6,54.0,52.0,42.8,32.0,77,46,23,0.00,40.00,16,7,28,0.04
2013-8-27,77.0,68.2,60.0,42.0,35.9,30.0,36,31,24,0.00,40.00,6,4,11,0.00
2013-8-28,76.0,68.3,57.0,54.0,50.5,46.0,75,54,39,0.00,40.00,12,7,25,0.01
2013-8-29,85.0,70.3,58.0,54.0,47.6,39.0,88,47,23,0.00,40.00,20,6,45,0.06
2013-8-30,75.0,66.8,56.0,54.0,47.0,42.0,75,52,31,0.00,40.00,23,10,31,0.06
2013-8-31,81.0,68.7,56.0,48.0,39.3,-99.9,61,37,24,0.00,40.00,9,6,15,0.00
2013-9-1,86.0,76.3,62.0,43.0,37.6,30.0,42,27,15,0.00,40.00,8,4,11,0.00
2013-9-2,80.0,72.5,67.0,45.0,40.2,31.0,45,32,24,0.00,40.00,18,8,25,0.00
2013-9-3,74.0,67.0,63.0,58.0,48.9,44.0,70,53,39,0.00,40.00,8,4,16,0.01
2013-9-4,84.0,70.0,59.0,55.0,49.5,41.0,73,51,30,0.00,40.00,14,5,22,0.01
2013-9-5,75.0,64.6,55.0,61.0,52.4,45.0,99,67,39,0.00,40.00,16,7,29,0.39
2013-9-6,72.0,61.7,54.0,58.0,53.3,48.0,99,76,55,0.00,40.00,20,6,27,0.28
2013-9-7,75.0,63.6,55.0,51.0,42.3,-99.9,67,50,27,0.00,40.00,16,7,24,0.00
2013-9-8,63.0,57.6,53.0,49.0,42.4,38.0,74,57,44,0.00,40.00,18,9,30,0.00
2013-9-9,71.0,58.2,51.0,47.0,43.3,39.0,79,59,37,0.00,40.00,14,7,23,0.00
2013-9-10,78.0,66.3,53.0,45.0,40.2,35.0,65,41,22,0.00,40.00,8,5,13,0.00
2013-9-11,79.0,68.8,58.0,45.0,41.2,38.0,54,38,25,0.00,40.00,9,5,16,0.00
2013-9-12,81.0,69.2,60.0,44.0,41.6,39.0,51,38,23,0.00,40.00,8,5,20,0.00
2013-9-13,79.0,66.6,60.0,50.0,47.0,44.0,68,50,32,0.00,40.00,13,7,34,0.12
2013-9-14,72.0,62.9,58.0,51.0,44.3,-99.9,70,54,37,0.00,40.00,15,5,21,0.12
2013-9-15,76.0,64.1,55.0,48.0,44.5,40.0,64,50,35,0.00,40.00,13,5,28,0.01
2013-9-16,77.0,65.8,55.0,53.0,44.9,32.0,79,51,21,0.00,40.00,18,8,39,0.05
2013-9-17,59.0,53.6,49.0,51.0,45.2,40.0,92,74,60,0.00,40.00,13,6,29,0.03
2013-9-18,49.0,43.9,42.0,40.0,36.8,30.0,88,76,60,0.00,40.00,17,9,33,0.03
2013-9-19,64.0,50.0,39.0,36.0,32.5,27.0,77,54,27,0.00,40.00,9,5,15,0.00
2013-9-20,75.0,60.6,46.0,33.0,27.2,20.0,51,31,16,0.00,40.00,9,5,15,0.00
2013-9-21,67.0,59.3,53.0,36.0,25.7,-99.9,52,30,20,0.00,40.00,19,10,28,0.00
2013-9-22,54.0,47.6,44.0,46.0,41.1,36.0,96,79,50,0.00,40.00,10,5,21,0.09
2013-9-23,52.0,45.2,40.0,40.0,36.2,33.0,92,72,54,0.00,40.00,15,7,35,0.11
2013-9-24,47.0,41.4,38.0,40.0,36.8,33.0,100,85,60,0.00,40.00,14,5,18,0.34
2013-9-25,39.0,37.2,35.0,39.0,36.9,35.0,100,99,91,0.00,40.00,12,6,20,0.54
2013-9-26,41.0,36.2,33.0,37.0,31.6,27.0,100,84,65,0.00,40.00,15,9,25,0.43
2013-9-27,42.0,38.2,33.0,33.0,28.9,25.0,82,69,59,0.00,40.00,12,6,20,0.01
2013-9-28,51.0,43.2,38.0,44.0,36.1,-99.9,93,79,67,0.00,40.00,9,6,20,0.17
2013-9-29,51.0,40.3,35.0,41.0,36.7,33.0,99,88,61,0.00,40.00,21,6,31,1.15
2013-9-30,47.0,40.1,35.0,41.0,31.6,24.0,100,74,41,0.00,40.00,16,8,40,0.63
2013-10-1,40.0,38.4,35.0,33.0,31.1,28.0,94,75,67,0.00,40.00,9,6,23,0.01
2013-10-2,47.0,37.4,32.0,34.0,26.7,21.0,98,67,40,0.00,40.00,11,6,22,0.01
2013-10-3,36.0,32.8,30.0,30.0,27.7,26.0,99,82,70,0.00,40.00,16,10,32,0.07
2013-10-4,46.0,36.5,29.0,27.0,23.8,20.0,82,61,44,0.00,40.00,8,5,16,0.01
2013-10-5,54.0,45.5,35.0,29.0,21.1,15.0,56,40,21,0.00,40.00,12,6,18,0.00
2013-10-6,66.0,55.2,42.0,33.0,26.2,20.0,50,34,23,0.00,40.00,9,6,15,0.00
2013-10-7,60.0,51.7,42.0,30.0,25.8,21.0,61,37,26,0.00,40.00,16,10,29,0.00
2013-10-8,44.0,37.7,34.0,33.0,28.2,24.0,89,69,53,0.00,40.00,16,9,31,0.00
2013-10-9,49.0,39.1,32.0,34.0,31.2,27.0,100,76,51,0.00,40.00,8,4,13,0.01
2013-10-10,44.0,38.8,32.0,35.0,30.5,25.0,94,72,58,0.00,40.00,16,6,26,0.01
2013-10-11,44.0,39.0,35.0,28.0,22.7,20.0,67,52,40,0.00,40.00,18,9,27,0.00
2013-10-12,44.0,36.8,32.0,28.0,22.7,-99.9,68,59,52,0.00,40.00,7,4,11,0.00
2013-10-13,44.0,37.9,32.0,31.0,28.2,24.0,81,68,57,0.00,40.00,12,5,19,0.00
2013-10-14,45.0,38.2,35.0,29.0,24.8,21.0,70,59,45,0.00,40.00,9,6,19,0.00
2013-10-15,50.0,39.3,30.0,28.0,24.2,16.0,80,57,31,0.00,40.00,13,6,22,0.00
2013-10-16,46.0,41.2,36.0,28.0,25.7,22.0,73,55,46,0.00,40.00,16,9,24,0.00
2013-10-17,42.0,36.5,32.0,34.0,28.9,27.0,87,74,60,0.00,40.00,12,4,19,0.00
2013-10-18,53.0,42.5,32.0,28.0,22.2,15.0,77,47,30,0.00,40.00,14,7,26,0.00
2013-10-19,57.0,50.2,43.0,23.0,14.5,-99.9,36,25,20,0.00,40.00,18,13,30,0.00
2013-10-20,49.0,45.6,42.0,31.0,27.4,19.0,61,49,35,0.00,40.00,17,12,25,0.00
2013-10-21,58.0,48.2,38.0,36.0,32.6,30.0,73,55,43,0.00,40.00,15,6,22,0.00
2013-10-22,61.0,52.1,44.0,40.0,30.3,21.0,59,44,24,0.00,40.00,8,4,15,0.00
2013-10-23,56.0,49.1,43.0,33.0,24.9,18.0,45,39,31,0.00,40.00,7,4,10,0.00
2013-10-24,62.0,50.4,41.0,34.0,25.6,19.0,44,38,31,0.00,40.00,6,2,9,0.00
2013-10-25,60.0,52.0,44.0,34.0,27.9,22.0,50,39,36,0.00,40.00,8,4,12,0.00
2013-10-26,60.0,50.2,42.0,35.0,22.4,-99.9,49,36,24,0.00,40.00,9,4,16,0.00
2013-10-27,51.0,43.8,32.0,27.0,25.0,19.0,60,48,37,0.00,40.00,15,8,33,0.00
2013-10-28,32.0,22.9,19.0,19.0,12.1,-99.9,90,67,58,0.00,40.00,15,9,29,0.00
2013-10-29,37.0,27.0,16.0,24.0,16.4,10.0,76,65,47,0.00,40.00,12,5,20,0.00
2013-10-30,40.0,35.7,34.0,25.0,22.6,19.0,67,59,50,0.00,40.00,18,12,30,0.00
2013-10-31,38.0,35.2,33.0,34.0,27.5,19.0,96,74,52,0.00,40.00,15,8,24,0.05
2013-11-1,45.0,38.7,34.0,32.0,28.9,27.0,94,69,49,0.00,40.00,13,6,24,0.04
2013-11-2,51.0,36.7,29.0,35.0,26.0,-99.9,95,69,40,0.00,40.00,18,8,39,0.14
2013-11-3,31.0,27.0,23.0,25.0,19.7,13.0,95,74,56,0.00,40.00,11,6,29,0.06
2013-11-4,30.0,23.9,21.0,22.0,15.4,11.0,94,70,57,0.00,40.00,14,6,23,0.07
2013-11-5,32.0,24.9,19.0,26.0,16.4,7.0,86,70,52,0.00,40.00,10,6,18,0.02
2013-11-6,37.0,33.8,31.0,31.0,23.7,17.0,94,68,50,0.00,40.00,16,8,30,0.00
2013-11-7,40.0,36.4,31.0,40.0,33.4,24.0,99,89,72,0.00,40.00,25,6,59,0.41
2013-11-8,32.0,30.8,29.0,31.0,27.0,21.0,99,86,69,0.00,40.00,12,5,34,0.29
2013-11-9,41.0,33.2,28.0,30.0,22.8,-99.9,79,68,60,0.00,40.00,7,4,12,0.02
2013-11-10,54.0,46.4,38.0,34.0,29.7,27.0,68,53,38,0.00,40.00,8,5,14,0.01
2013-11-11,53.0,41.5,36.0,34.0,31.5,29.0,85,69,43,0.00,40.00,7,4,11,0.00
2013-11-12,59.0,48.4,38.0,30.0,24.3,18.0,72,40,20,0.00,40.00,18,8,34,0.00
2013-11-13,44.0,40.3,36.0,37.0,29.3,21.0,89,65,46,0.00,40.00,23,9,34,0.02
2013-11-14,43.0,35.7,33.0,24.0,20.3,15.0,63,54,38,0.00,40.00,14,7,24,0.02
2013-11-15,34.0,30.9,27.0,25.0,19.9,17.0,89,64,49,0.00,40.00,15,9,25,0.00
2013-11-16,32.0,25.4,23.0,30.0,22.1,-99.9,97,91,77,0.00,40.00,14,5,28,0.06
2013-11-17,30.0,26.3,22.0,26.0,22.0,17.0,95,84,65,0.00,40.00,15,5,30,0.04
2013-11-18,41.0,35.6,27.0,27.0,20.6,15.0,67,55,36,0.00,40.00,10,6,28,0.27
2013-11-19,42.0,37.0,33.0,34.0,31.2,23.0,95,80,55,0.00,40.00,9,5,28,0.24
2013-11-20,35.0,27.4,17.0,34.0,19.3,5.0,99,73,49,0.00,40.00,20,9,33,0.26
2013-11-21,27.0,18.3,13.0,10.0,5.3,1.0,68,56,45,0.00,40.00,6,3,9,0.01
2013-11-22,33.0,23.0,17.0,14.0,7.5,2.0,61,51,40,0.00,40.00,5,3,10,0.01
2013-11-23,39.0,27.1,19.0,19.0,10.9,-99.9,66,54,43,0.00,40.00,5,2,9,0.00
2013-11-24,45.0,35.3,26.0,19.0,12.6,8.0,59,41,22,0.00,40.00,14,6,22,0.00
2013-11-25,48.0,40.6,34.0,22.0,17.4,9.0,50,39,29,0.00,40.00,12,4,22,0.00
2013-11-26,48.0,41.7,35.0,25.0,21.8,20.0,55,45,36,0.00,40.00,10,5,14,0.00
2013-11-27,48.0,39.3,35.0,26.0,20.4,16.0,63,47,36,0.00,40.00,10,4,14,0.00
2013-11-28,46.0,39.0,32.0,24.0,19.3,16.0,58,46,33,0.00,40.00,7,4,14,0.00
2013-11-29,46.0,39.5,36.0,27.0,19.0,15.0,67,44,34,0.00,40.00,15,7,25,0.00
2013-11-30,37.0,35.4,35.0,33.0,27.4,-99.9,87,76,67,0.00,40.00,13,7,23,0.00
2013-12-1,36.0,33.6,32.0,33.0,31.7,28.0,99,93,76,0.00,40.00,8,4,20,0.59
2013-12-2,37.0,28.4,18.0,34.0,24.9,12.0,98,87,68,0.00,40.00,21,8,50,1.05
2013-12-3,18.0,6.2,-1.0,12.0,-0.8,-8.0,93,73,60,0.00,40.00,10,5,19,0.03
2013-12-4,3.0,-1.1,-3.0,-7.0,-9.2,-11.0,77,68,56,0.00,40.00,0,0,10,0.00
2013-12-5,9.0,-1.3,-5.0,-5.0,-8.6,-11.0,81,71,51,0.00,40.00,3,0,7,0.00
2013-12-6,-2.0,-5.8,-11.0,-7.0,-11.1,-17.0,83,77,72,0.00,40.00,0,0,4,0.00
2013-12-7,-2.0,-9.9,-14.0,-13.0,-18.6,-99.9,74,69,57,0.00,40.00,1,0,4,0.00
2013-12-8,0.0,-4.3,-10.0,-7.0,-11.1,-17.0,76,72,65,0.00,40.00,4,1,12,0.00
2013-12-9,18.0,9.9,-3.0,12.0,3.4,-11.0,81,74,66,0.00,40.00,8,3,19,0.00
2013-12-10,20.0,18.5,17.0,15.0,11.9,9.0,88,75,68,0.00,40.00,15,6,24,0.00
2013-12-11,28.0,23.0,18.0,19.0,14.1,12.0,80,69,52,0.00,40.00,11,4,20,0.07
2013-12-12,37.0,29.4,22.0,20.0,17.4,16.0,79,62,44,0.00,40.00,10,6,17,0.11
2013-12-13,32.0,30.0,28.0,27.0,23.8,17.0,86,78,55,0.00,40.00,10,7,21,0.01
2013-12-14,38.0,32.4,30.0,28.0,22.9,-99.9,79,71,46,0.00,40.00,9,6,20,0.02
2013-12-15,44.0,39.8,37.0,27.0,21.1,12.0,58,47,33,0.00,40.00,13,7,34,0.11
2013-12-16,43.0,37.6,34.0,21.0,16.2,11.0,51,42,33,0.00,40.00,12,6,21,0.05
2013-12-17,52.0,45.5,35.0,19.0,16.1,11.0,46,31,22,0.00,40.00,15,9,25,0.00
2013-12-18,44.0,35.4,29.0,26.0,19.6,11.0,89,56,26,0.00,40.00,17,9,27,0.00
2013-12-19,29.0,20.3,15.0,25.0,16.4,10.0,97,85,64,0.00,40.00,16,7,27,0.02
2013-12-20,26.0,19.9,16.0,21.0,11.5,2.0,94,71,34,0.00,40.00,12,7,22,0.01
2013-12-21,27.0,24.9,23.0,23.0,19.3,-99.9,94,83,69,0.00,40.00,15,7,31,0.00
2013-12-22,32.0,29.4,27.0,26.0,24.2,22.0,93,81,66,0.00,40.00,13,7,25,0.00
2013-12-23,37.0,33.5,26.0,34.0,30.6,25.0,98,89,82,0.00,40.00,20,7,58,0.31
2013-12-24,31.0,26.3,24.0,25.0,17.7,15.0,96,70,53,0.00,40.00,20,9,42,0.03
2013-12-25,41.0,32.0,24.0,15.0,9.7,2.0,66,42,21,0.00,40.00,12,7,19,0.00
2013-12-26,49.0,45.4,42.0,28.0,24.6,22.0,47,44,40,0.00,40.00,7,6,17,0.00
2013-12-27,48.0,42.6,35.0,21.0,16.7,8.0,48,36,22,0.00,40.00,13,8,30,0.00
2013-12-28,39.0,29.5,24.0,26.0,16.0,-99.9,83,59,40,0.00,40.00,21,12,33,0.00
2013-12-29,32.0,26.4,22.0,22.0,14.6,7.0,79,61,34,0.00,40.00,15,8,24,0.00
2013-12-30,39.0,33.6,29.0,33.0,26.2,18.0,97,75,60,0.00,40.00,10,6,23,0.04
2013-12-31,35.0,32.9,29.0,33.0,29.5,23.0,96,87,74,0.00,40.00,19,7,35,0.10
2014-1-1,34.0,30.4,28.0,24.0,19.3,16.0,77,63,52,0.00,40.00,14,8,25,0.01
2014-1-2,43.0,35.7,28.0,30.0,20.1,13.0,75,54,39,0.00,40.00,8,5,16,0.01